หน้าหลัก
METAR-TAF:

METAR-TAF

ท่าอากาศยาน :

รัฐชีวาวา, เม็กซิโก

ละติจูด: 28-42N, ลองจิจูด: 105-58W, ความสูง: 1360 ม.

การสังเกตสภาพอากาศปัจจุบัน

รายงานได้ทำขึ้นเมื่อ 37 นาทีที่แล้ว ณ เวลา 14:40 UTC
ลม 4 นอตจากตะวันตกเฉียงใต้
อุณหภูมิ 30°C
ความชื้น 14%
ความกดอากาศ 1015 hPa
ทัศนวิสัย: 16.1 กม.
ท้องฟ้าแจ่มใส

METAR: MMCU 181440Z 22004KT 10SM SKC 30/00 A2996 RMK SLP995 52014 906

เวลา: 09:17 (15:17 UTC)

การพยากรณ์

รายงานได้ทำขึ้นเมื่อ 10 ชั่วโมงและ 27 นาทีที่แล้ว ณ เวลา 04:50 UTC
การพยากรณ์มีผลตั้งแต่วันที่ 18 ณ เวลา 06 UTC จนถึงวันที่ 19 ณ เวลา 06 UTC
ลม 5 นอตจากตะวันตก/ตะวันตกเฉียงเหนือ
ทัศนวิสัย: 10 กม.
ท้องฟ้าแจ่มใส
จาก 18 ณ เวลา 1800 UTC
ลม 15 นอตจากตะวันตก/ตะวันตกเฉียงใต้
ทัศนวิสัย: 10 กม.
ท้องฟ้าแจ่มใส
จาก 19 ณ เวลา 0300 UTC
ลม 8 นอตจากเหนือ/ตะวันตกเฉียงเหนือ
ทัศนวิสัย: 10 กม.
ท้องฟ้าแจ่มใส

TAF: MMCU 180450Z 1806/1906 30005KT P6SM SKC FM181800 24015KT P6SM SKC FM190300 33008KT P6SM SKC

สังเกตการณ์สภาพอากาศและพยากรณ์อากาศของสนามบินมากกว่า 4000 แห่ง (รายงาน METAR และ TAF).

สถานีที่ดูได้จะแสดงไว้ด้วยจุดสีเหลืองและสีแดงบนแผนที่.

เลื่อนเมาส์ไปเหนือจุดเพื่อดูชื่อสถานี.

แล้วคลิกเพื่อดูสังเกตการณ์และการพยากรณ์สภาพอากาศ.

ในการเปลี่ยนแผนที่: คลิกที่ปุ่มสีเขียวที่มีกากบาทสีดำเพื่อซูมเข้า; ที่ปุ่มสีเขียวที่มีขีดเพื่อซูมออก; หรือที่ลูกศรสีเขียวเพื่อไปยังแผนที่ที่อยู่ติดกัน.


METAR-TAF: